MSC Paola — 9HA2581 — position and weather

sailwx.info

Track history (hours):
 
Tides and Currents Weather Stations Pressure Air Temp Water Temp Dewpoint Dewpoint Depression Visibility Wind Speed Wind Dir Waves Ship Positions

MSC Paola

Last reported at 2015-Jan-22 11:21 UTC. Time now 2015-Jan-28 01:24 UTC.
Position S 26°13' E 153°40'.

Length 243 m; draft 8.9 m.

Type: Ship (hazmat cat A). MMSI: 248931000.

Date/timePositionNaut miles runAvg speedWind from/ knotsBaromVisibWave heightAir tempDewpointWater temp
2015-Jan-22 11:21S 26°13' E 153°40'1515.5
2015-Jan-22 10:23S 26°25' E 153°31'1315.7
2015-Jan-22 09:33S 26°36' E 153°22'1312.9
2015-Jan-22 08:34S 26°44' E 153°11'1414.2
2015-Jan-22 07:33S 26°58' E 153°13'1515.4
2015-Jan-22 06:33S 27°12' E 153°21'1313.5
2015-Jan-22 05:33S 27°22' E 153°10'0 0.2
2015-Jan-22 04:32S 27°22' E 153°11'0 0.0
2015-Jan-22 03:32S 27°22' E 153°11'0 0.0
2015-Jan-22 02:32S 27°22' E 153°11'0 0.0
2015-Jan-22 01:32S 27°22' E 153°11'0 0.0
2015-Jan-22 00:32S 27°22' E 153°11'0 0.0
2015-Jan-21 23:32S 27°22' E 153°11'0 0.0
2015-Jan-21 22:50S 27°22' E 153°11'0 0.0
2015-Jan-21 22:44S 27°22' E 153°11'0 0.0
2015-Jan-21 22:32S 27°22' E 153°11'0 0.0
2015-Jan-21 21:31S 27°22' E 153°11'0 0.1
2015-Jan-21 20:33S 27°22' E 153°10'8 7.5
2015-Jan-21 19:33S 27°16' E 153°16'1413.3
2015-Jan-21 18:32S 27°03' E 153°16'1515.4
2015-Jan-21 17:32S 26°48' E 153°11'9 8.7
2015-Jan-21 16:33S 26°40' E 153°14'7 3.7
2015-Jan-21 14:31S 26°44' E 153°21'1211.5
2015-Jan-21 13:31S 26°49' E 153°33'  
2015-Jan-17 21:33S 36°18' E 174°58'1212.2
2015-Jan-17 20:34S 36°29' E 175°03'1111.4
2015-Jan-17 19:33S 36°39' E 174°56'1111.1
2015-Jan-17 18:33S 36°49' E 174°50'3 2.9
2015-Jan-17 17:32S 36°51' E 174°47'0 0.0
2015-Jan-17 16:32S 36°51' E 174°47'0 0.0
2015-Jan-17 15:32S 36°51' E 174°47'0 0.0
2015-Jan-17 14:32S 36°51' E 174°47'0 0.0
2015-Jan-17 13:32S 36°51' E 174°47'0 0.0
2015-Jan-17 12:32S 36°51' E 174°47'0 0.0
2015-Jan-17 11:32S 36°51' E 174°47'2 2.4
2015-Jan-17 10:33S 36°50' E 174°50'9 8.7
2015-Jan-17 09:34S 36°41' E 174°53'1 0.9
2015-Jan-17 08:33S 36°41' E 174°53'1110.8
2015-Jan-17 07:34S 36°33' E 175°03'1111.1
2015-Jan-17 06:34S 36°26' E 175°13'  
Track history (hours):
 
Tides and Currents Weather Stations Pressure Air Temp Water Temp Dewpoint Dewpoint Depression Visibility Wind Speed Wind Dir Waves Ship Positions

MSC Paola

Last reported at 2015-Jan-22 11:21 UTC. Time now 2015-Jan-28 01:24 UTC.
Position S 26°13' E 153°40'.

Length 243 m; draft 8.9 m.

Type: Ship (hazmat cat A). MMSI: 248931000.

Date/timePositionNaut miles runAvg speedWind from/ knotsBaromVisibWave heightAir tempDewpointWater temp
2015-Jan-22 11:21S 26°13' E 153°40'1515.5
2015-Jan-22 10:23S 26°25' E 153°31'1315.7
2015-Jan-22 09:33S 26°36' E 153°22'1312.9
2015-Jan-22 08:34S 26°44' E 153°11'1414.2
2015-Jan-22 07:33S 26°58' E 153°13'1515.4
2015-Jan-22 06:33S 27°12' E 153°21'1313.5
2015-Jan-22 05:33S 27°22' E 153°10'0 0.2
2015-Jan-22 04:32S 27°22' E 153°11'0 0.0
2015-Jan-22 03:32S 27°22' E 153°11'0 0.0
2015-Jan-22 02:32S 27°22' E 153°11'0 0.0
2015-Jan-22 01:32S 27°22' E 153°11'0 0.0
2015-Jan-22 00:32S 27°22' E 153°11'0 0.0
2015-Jan-21 23:32S 27°22' E 153°11'0 0.0
2015-Jan-21 22:50S 27°22' E 153°11'0 0.0
2015-Jan-21 22:44S 27°22' E 153°11'0 0.0
2015-Jan-21 22:32S 27°22' E 153°11'0 0.0
2015-Jan-21 21:31S 27°22' E 153°11'0 0.1
2015-Jan-21 20:33S 27°22' E 153°10'8 7.5
2015-Jan-21 19:33S 27°16' E 153°16'1413.3
2015-Jan-21 18:32S 27°03' E 153°16'1515.4
2015-Jan-21 17:32S 26°48' E 153°11'9 8.7
2015-Jan-21 16:33S 26°40' E 153°14'7 3.7
2015-Jan-21 14:31S 26°44' E 153°21'1211.5
2015-Jan-21 13:31S 26°49' E 153°33'  
2015-Jan-17 21:33S 36°18' E 174°58'1212.2
2015-Jan-17 20:34S 36°29' E 175°03'1111.4
2015-Jan-17 19:33S 36°39' E 174°56'1111.1
2015-Jan-17 18:33S 36°49' E 174°50'3 2.9
2015-Jan-17 17:32S 36°51' E 174°47'0 0.0
2015-Jan-17 16:32S 36°51' E 174°47'0 0.0
2015-Jan-17 15:32S 36°51' E 174°47'0 0.0
2015-Jan-17 14:32S 36°51' E 174°47'0 0.0
2015-Jan-17 13:32S 36°51' E 174°47'0 0.0
2015-Jan-17 12:32S 36°51' E 174°47'0 0.0
2015-Jan-17 11:32S 36°51' E 174°47'2 2.4
2015-Jan-17 10:33S 36°50' E 174°50'9 8.7
2015-Jan-17 09:34S 36°41' E 174°53'1 0.9
2015-Jan-17 08:33S 36°41' E 174°53'1110.8
2015-Jan-17 07:34S 36°33' E 175°03'1111.1
2015-Jan-17 06:34S 36°26' E 175°13'  

Dump ship's entire track history